createdAt,value
2018-04-20T00:01:57.321Z,99.90
2018-04-20T00:04:24.822Z,99.90
2018-04-20T00:06:53.115Z,99.90
2018-04-20T00:09:20.581Z,99.90
2018-04-20T00:11:48.051Z,99.60
2018-04-20T00:14:15.614Z,99.80
2018-04-20T00:16:43.135Z,99.60
2018-04-20T00:19:10.676Z,99.80
2018-04-20T00:21:38.156Z,99.90
2018-04-20T00:24:06.455Z,99.90
2018-04-20T00:26:33.987Z,99.90
2018-04-20T00:29:01.461Z,99.90
2018-04-20T00:31:29.690Z,99.90
2018-04-20T00:33:57.259Z,99.90
2018-04-20T00:36:24.781Z,99.90
2018-04-20T00:38:52.302Z,99.90
2018-04-20T00:41:19.852Z,99.90
2018-04-20T00:43:47.371Z,99.90
2018-04-20T00:46:14.872Z,99.90
2018-04-20T00:48:43.127Z,99.90
2018-04-20T00:51:10.638Z,99.90
2018-04-20T00:56:45.054Z,99.90
2018-04-20T00:59:13.324Z,99.90
2018-04-20T01:01:41.608Z,99.90
2018-04-20T01:04:09.904Z,99.90
2018-04-20T01:06:37.473Z,99.90
2018-04-20T01:09:05.750Z,99.90
2018-04-20T01:11:33.213Z,99.90
2018-04-20T01:14:00.741Z,99.90
2018-04-20T01:16:28.217Z,99.90
2018-04-20T01:18:55.740Z,99.90
2018-04-20T01:21:24.072Z,99.90
2018-04-20T01:23:51.545Z,99.90
2018-04-20T01:26:19.024Z,99.90
2018-04-20T01:28:47.297Z,99.90
2018-04-20T01:31:15.582Z,99.90
2018-04-20T01:33:43.864Z,99.90
2018-04-20T01:36:12.143Z,99.90
2018-04-20T01:38:40.451Z,99.90
2018-04-20T01:41:07.983Z,99.90
2018-04-20T01:43:35.507Z,99.90
2018-04-20T01:46:03.019Z,99.90
2018-04-20T01:48:30.545Z,99.90
2018-04-20T01:50:58.075Z,99.90
2018-04-20T01:53:25.555Z,99.90
2018-04-20T01:55:53.820Z,99.90
2018-04-20T01:58:21.344Z,99.90
2018-04-20T02:00:48.879Z,99.90
2018-04-20T02:03:16.429Z,99.90
2018-04-20T02:05:43.914Z,99.90
2018-04-20T02:08:11.436Z,99.90
2018-04-20T02:10:39.695Z,99.90
2018-04-20T02:13:07.983Z,99.90
2018-04-20T02:15:36.246Z,99.90
2018-04-20T02:18:04.483Z,99.90
2018-04-20T02:20:31.962Z,99.90
2018-04-20T02:22:59.512Z,99.90
2018-04-20T02:25:26.986Z,99.90
2018-04-20T02:27:54.518Z,99.90
2018-04-20T02:30:22.027Z,99.90
2018-04-20T02:32:49.518Z,99.90
2018-04-20T02:35:17.030Z,99.90
2018-04-20T02:37:45.277Z,99.90
2018-04-20T02:40:12.811Z,99.90
2018-04-20T02:42:40.331Z,99.90
2018-04-20T02:45:07.836Z,99.90
2018-04-20T02:47:35.334Z,99.90
2018-04-20T02:50:03.572Z,99.90
2018-04-20T02:52:31.104Z,99.90
2018-04-20T02:54:58.626Z,99.90
2018-04-20T02:57:26.913Z,99.90
2018-04-20T02:59:54.423Z,99.90
2018-04-20T03:02:21.944Z,99.90
2018-04-20T03:04:49.425Z,99.90
2018-04-20T03:07:16.928Z,99.90
2018-04-20T03:09:45.236Z,99.90
2018-04-20T03:12:12.729Z,99.90
2018-04-20T03:14:40.213Z,99.90
2018-04-20T03:17:07.718Z,99.90
2018-04-20T03:19:35.198Z,99.90
2018-04-20T03:22:02.694Z,99.90
2018-04-20T03:24:30.988Z,99.90
2018-04-20T03:26:58.459Z,99.90
2018-04-20T03:29:25.998Z,99.90
2018-04-20T03:31:54.271Z,99.90
2018-04-20T03:34:22.563Z,99.90
2018-04-20T03:36:50.097Z,99.90
2018-04-20T03:39:18.365Z,99.90
2018-04-20T03:41:46.606Z,99.90
2018-04-20T03:44:14.124Z,99.90
2018-04-20T03:46:41.660Z,99.90
2018-04-20T03:49:09.143Z,99.90
2018-04-20T03:51:36.660Z,99.90
2018-04-20T03:54:04.204Z,99.90
2018-04-20T03:56:31.666Z,99.90
2018-04-20T03:58:59.174Z,99.90
2018-04-20T04:01:26.669Z,99.90
2018-04-20T04:03:54.176Z,99.90
2018-04-20T04:06:22.428Z,99.90
2018-04-20T04:08:49.914Z,99.90
2018-04-20T04:11:17.431Z,99.90
2018-04-20T04:13:44.947Z,99.90
2018-04-20T04:16:12.422Z,99.90
2018-04-20T04:18:51.903Z,99.90
2018-04-20T04:21:30.745Z,99.90
2018-04-20T04:27:10.381Z,99.90
2018-04-20T04:29:37.865Z,99.90
2018-04-20T04:32:05.341Z,99.90
2018-04-20T04:34:32.807Z,99.90
2018-04-20T04:37:00.302Z,99.90
2018-04-20T04:39:27.766Z,99.90
2018-04-20T04:41:55.267Z,99.90
2018-04-20T04:44:22.800Z,99.90
2018-04-20T04:46:51.021Z,99.90
2018-04-20T04:49:18.494Z,99.90
2018-04-20T04:51:46.019Z,99.90
2018-04-20T04:54:13.549Z,99.80
2018-04-20T04:56:41.018Z,99.70
2018-04-20T04:59:08.522Z,99.60
2018-04-20T05:01:36.040Z,99.90
2018-04-20T05:04:03.532Z,99.60
2018-04-20T05:06:31.781Z,99.50
2018-04-20T05:08:59.281Z,99.50
2018-04-20T05:11:26.797Z,99.50
2018-04-20T05:13:54.319Z,99.60
2018-04-20T05:16:21.856Z,99.40
2018-04-20T05:18:49.369Z,99.50
2018-04-20T05:21:16.888Z,99.70
2018-04-20T05:23:44.357Z,99.90
2018-04-20T05:26:12.653Z,95.00
2018-04-20T05:28:40.167Z,95.00
2018-04-20T05:31:07.716Z,93.50
2018-04-20T05:33:35.243Z,91.70
2018-04-20T05:36:02.769Z,90.20
2018-04-20T05:38:31.013Z,79.80
2018-04-20T05:40:58.516Z,79.70
2018-04-20T05:43:26.063Z,77.80
2018-04-20T05:45:54.331Z,75.60
2018-04-20T05:48:21.806Z,75.40
2018-04-20T05:50:49.366Z,72.50
2018-04-20T05:53:16.875Z,71.70
2018-04-20T05:55:44.396Z,69.90
2018-04-20T05:58:11.929Z,66.90
2018-04-20T06:00:40.173Z,62.60
2018-04-20T06:03:07.648Z,62.60
2018-04-20T06:05:35.909Z,62.30
2018-04-20T06:08:03.385Z,62.30
2018-04-20T06:10:31.682Z,58.10
2018-04-20T06:12:59.220Z,57.90
2018-04-20T06:15:27.507Z,56.60
2018-04-20T06:17:55.798Z,56.20
2018-04-20T06:20:23.311Z,56.20
2018-04-20T06:22:50.859Z,53.30
2018-04-20T06:25:18.360Z,52.80
2018-04-20T06:27:45.889Z,53.20
2018-04-20T06:30:13.357Z,53.00
2018-04-20T06:32:41.627Z,51.60
2018-04-20T06:35:09.091Z,51.60
2018-04-20T06:37:37.419Z,52.50
2018-04-20T06:40:05.609Z,51.40
2018-04-20T06:42:33.151Z,51.30
2018-04-20T06:45:00.704Z,50.80
2018-04-20T06:47:28.225Z,50.50
2018-04-20T06:49:56.466Z,51.50
2018-04-20T06:52:24.008Z,51.40
2018-04-20T06:54:52.274Z,49.00
2018-04-20T06:57:19.784Z,48.70
2018-04-20T06:59:47.295Z,47.20
2018-04-20T07:02:14.807Z,49.30
2018-04-20T07:04:43.098Z,47.40
2018-04-20T07:07:11.414Z,47.30
2018-04-20T07:09:38.923Z,44.60
2018-04-20T07:12:07.209Z,44.20
2018-04-20T07:14:34.737Z,44.20
2018-04-20T07:17:02.245Z,46.20
2018-04-20T07:19:29.738Z,45.40
2018-04-20T07:21:57.276Z,45.80
2018-04-20T07:24:24.761Z,43.30
2018-04-20T07:33:37.708Z,43.90
2018-04-20T07:36:05.191Z,44.50
2018-04-20T07:38:32.675Z,43.90
2018-04-20T07:41:00.219Z,42.60
2018-04-20T07:43:28.449Z,42.60
2018-04-20T07:45:55.967Z,42.40
2018-04-20T07:48:23.495Z,41.60
2018-04-20T07:50:50.966Z,39.10
2018-04-20T07:53:19.249Z,40.50
2018-04-20T07:55:46.807Z,40.40
2018-04-20T07:58:15.096Z,38.70
2018-04-20T08:00:42.623Z,38.60
2018-04-20T08:03:10.891Z,36.30
2018-04-20T08:05:38.403Z,36.40
2018-04-20T08:08:05.935Z,36.00
2018-04-20T08:10:34.206Z,38.10
2018-04-20T08:13:02.436Z,40.10
2018-04-20T08:15:29.977Z,40.00
2018-04-20T08:17:57.493Z,38.00
2018-04-20T08:20:25.963Z,34.80
2018-04-20T08:22:53.445Z,34.70
2018-04-20T08:25:20.931Z,36.20
2018-04-20T08:27:48.445Z,34.50
2018-04-20T08:30:16.730Z,36.40
2018-04-20T08:32:44.212Z,36.40
2018-04-20T08:35:11.710Z,37.90
2018-04-20T08:37:39.190Z,36.70
2018-04-20T08:40:07.422Z,40.20
2018-04-20T08:42:34.932Z,40.00
2018-04-20T08:45:03.219Z,36.20
2018-04-20T08:47:30.673Z,36.40
2018-04-20T08:49:58.135Z,37.50
2018-04-20T08:52:25.650Z,38.90
2018-04-20T08:54:53.126Z,41.80
2018-04-20T08:57:21.359Z,49.80
2018-04-20T08:59:48.842Z,49.80
2018-04-20T09:02:17.146Z,51.60
2018-04-20T09:04:44.651Z,52.20
2018-04-20T09:07:12.152Z,53.70
2018-04-20T09:09:40.406Z,54.20
2018-04-20T09:12:07.917Z,54.30
2018-04-20T09:14:35.412Z,56.80
2018-04-20T09:17:02.885Z,58.60
2018-04-20T09:19:31.167Z,56.20
2018-04-20T09:21:58.630Z,55.60
2018-04-20T09:24:26.934Z,54.00
2018-04-20T09:26:54.390Z,53.90
2018-04-20T09:29:21.854Z,53.00
2018-04-20T09:31:49.330Z,54.40
2018-04-20T09:34:16.795Z,56.70
2018-04-20T09:36:44.270Z,55.80
2018-04-20T09:39:11.744Z,58.80
2018-04-20T09:41:40.005Z,55.20
2018-04-20T09:44:07.462Z,55.20
2018-04-20T09:46:34.937Z,55.80
2018-04-20T09:49:03.174Z,54.10
2018-04-20T09:51:30.645Z,54.20
2018-04-20T09:53:58.200Z,56.40
2018-04-20T09:56:25.702Z,56.30
2018-04-20T09:58:53.216Z,56.00
2018-04-20T10:01:24.611Z,56.70
2018-04-20T10:03:56.975Z,57.00
2018-04-20T10:06:25.263Z,54.00
2018-04-20T10:08:53.500Z,57.20
2018-04-20T10:11:20.970Z,57.40
2018-04-20T10:13:49.351Z,55.50
2018-04-20T10:16:17.578Z,55.20
2018-04-20T10:18:45.086Z,55.20
2018-04-20T10:21:13.325Z,52.20
2018-04-20T10:23:40.838Z,52.20
2018-04-20T10:26:08.332Z,53.10
2018-04-20T10:28:35.807Z,53.20
2018-04-20T10:31:03.265Z,50.90
2018-04-20T10:33:30.764Z,52.60
2018-04-20T10:35:58.249Z,52.80
2018-04-20T10:38:25.710Z,51.60
2018-04-20T10:40:53.178Z,50.70
2018-04-20T10:43:20.661Z,50.10
2018-04-20T10:45:48.943Z,49.00
2018-04-20T10:48:16.419Z,49.00
2018-04-20T10:50:43.940Z,47.30
2018-04-20T10:53:11.441Z,48.30
2018-04-20T10:55:38.939Z,49.40
2018-04-20T10:58:06.469Z,50.50
2018-04-20T11:00:33.934Z,49.40
2018-04-20T11:03:01.427Z,50.00
2018-04-20T11:05:28.890Z,50.60
2018-04-20T11:07:56.359Z,52.00
2018-04-20T11:10:24.613Z,49.90
2018-04-20T11:12:52.099Z,49.90
2018-04-20T11:15:20.329Z,50.80
2018-04-20T11:17:47.806Z,50.70
2018-04-20T11:20:15.277Z,48.20
2018-04-20T11:22:43.547Z,52.40
2018-04-20T11:25:11.064Z,52.30
2018-04-20T11:27:38.521Z,51.70
2018-04-20T11:30:12.154Z,48.30
2018-04-20T11:32:39.655Z,49.80
2018-04-20T11:35:07.155Z,47.90
2018-04-20T11:37:34.644Z,51.90
2018-04-20T11:40:02.923Z,51.10
2018-04-20T11:42:31.217Z,51.10
2018-04-20T11:44:58.748Z,51.10
2018-04-20T11:47:26.273Z,52.60
2018-04-20T11:49:53.747Z,48.60
2018-04-20T11:52:21.280Z,49.40
2018-04-20T11:54:48.778Z,52.10
2018-04-20T11:57:16.256Z,50.50
2018-04-20T11:59:44.567Z,48.80
2018-04-20T12:02:12.122Z,48.70
2018-04-20T12:04:39.579Z,46.60
2018-04-20T12:07:07.130Z,49.70
2018-04-20T12:09:34.645Z,52.50
2018-04-20T12:12:02.142Z,50.50
2018-04-20T12:14:29.635Z,50.50
2018-04-20T12:16:57.907Z,48.70
2018-04-20T12:19:25.437Z,48.70
2018-04-20T12:21:52.942Z,50.40
2018-04-20T12:24:20.467Z,49.60
2018-04-20T12:26:47.997Z,48.40
2018-04-20T12:29:15.528Z,48.80
2018-04-20T12:31:43.011Z,47.40
2018-04-20T12:34:11.343Z,47.20
2018-04-20T12:36:38.811Z,47.10
2018-04-20T12:39:06.360Z,44.50
2018-04-20T12:41:33.907Z,48.70
2018-04-20T12:44:01.414Z,47.80
2018-04-20T12:46:29.679Z,43.70
2018-04-20T12:48:58.011Z,47.10
2018-04-20T12:51:25.503Z,47.20
2018-04-20T12:53:53.005Z,46.60
2018-04-20T12:56:20.520Z,43.80
2018-04-20T12:58:48.029Z,45.10
2018-04-20T13:01:15.535Z,44.70
2018-04-20T13:03:43.131Z,44.70
2018-04-20T13:06:10.647Z,46.80
2018-04-20T13:08:38.170Z,48.40
2018-04-20T13:11:05.622Z,45.70
2018-04-20T13:13:33.125Z,45.70
2018-04-20T13:16:00.657Z,44.30
2018-04-20T13:18:28.878Z,47.10
2018-04-20T13:20:56.346Z,47.10
2018-04-20T13:23:23.850Z,42.80
2018-04-20T13:25:52.130Z,46.10
2018-04-20T13:28:19.647Z,46.00
2018-04-20T13:30:47.119Z,46.20
2018-04-20T13:33:14.644Z,46.70
2018-04-20T13:35:42.959Z,43.40
2018-04-20T13:38:13.096Z,43.40
2018-04-20T13:40:40.620Z,44.70
2018-04-20T13:43:08.115Z,45.10
2018-04-20T13:45:35.597Z,44.10
2018-04-20T13:48:03.822Z,42.10
2018-04-20T13:50:31.306Z,41.80
2018-04-20T13:52:58.787Z,41.90
2018-04-20T13:55:27.014Z,44.70
2018-04-20T13:57:54.871Z,44.60
2018-04-20T14:00:22.372Z,44.50
2018-04-20T14:02:49.864Z,43.90
2018-04-20T14:05:17.421Z,42.60
2018-04-20T14:07:45.659Z,42.00
2018-04-20T14:10:13.178Z,42.20
2018-04-20T14:12:40.643Z,40.70
2018-04-20T14:15:09.251Z,40.60
2018-04-20T14:17:36.932Z,42.50
2018-04-20T14:20:04.442Z,40.30
2018-04-20T14:22:31.910Z,40.00
2018-04-20T14:24:59.385Z,41.50
2018-04-20T14:27:26.901Z,40.60
2018-04-20T14:29:54.358Z,37.80
2018-04-20T14:32:21.876Z,39.10
2018-04-20T14:34:49.376Z,39.00
2018-04-20T14:37:16.900Z,41.60
2018-04-20T14:39:44.404Z,35.10
2018-04-20T14:42:11.899Z,35.80
2018-04-20T14:44:39.370Z,35.50
2018-04-20T14:47:09.643Z,34.40
2018-04-20T14:49:37.774Z,34.00
2018-04-20T14:52:06.040Z,36.80
2018-04-20T14:54:33.543Z,36.80
2018-04-20T14:57:01.048Z,35.90
2018-04-20T14:59:28.501Z,34.40
2018-04-20T15:01:56.018Z,36.50
2018-04-20T15:04:23.512Z,35.50
2018-04-20T15:06:50.971Z,37.20
2018-04-20T15:09:18.484Z,35.60
2018-04-20T15:11:45.976Z,35.60
2018-04-20T15:14:13.467Z,33.20
2018-04-20T15:16:41.695Z,33.60
2018-04-20T15:19:09.241Z,33.60
2018-04-20T15:21:36.715Z,33.60
2018-04-20T15:24:04.216Z,32.40
2018-04-20T15:26:32.492Z,32.40
2018-04-20T15:29:00.810Z,31.80
2018-04-20T15:31:28.320Z,31.70
2018-04-20T15:33:55.821Z,31.70
2018-04-20T15:36:23.306Z,31.60
2018-04-20T15:38:50.770Z,32.60
2018-04-20T15:41:18.238Z,31.20
2018-04-20T15:43:45.708Z,33.20
2018-04-20T15:46:13.976Z,36.00
2018-04-20T15:48:41.471Z,36.00
2018-04-20T15:51:08.951Z,35.70
2018-04-20T15:53:36.405Z,35.90
2018-04-20T15:56:03.930Z,32.80
2018-04-20T15:58:32.200Z,32.60
2018-04-20T16:01:01.870Z,32.20
2018-04-20T16:03:29.334Z,32.10
2018-04-20T16:05:56.838Z,31.40
2018-04-20T16:08:24.318Z,33.00
2018-04-20T16:10:51.794Z,34.80
2018-04-20T16:13:19.380Z,32.00
2018-04-20T16:15:47.000Z,33.40
2018-04-20T16:18:14.524Z,32.80
2018-04-20T16:20:42.032Z,34.00
2018-04-20T16:23:09.555Z,34.00
2018-04-20T16:25:37.113Z,35.00
2018-04-20T16:28:04.618Z,34.10
2018-04-20T16:30:32.877Z,35.00
2018-04-20T16:33:00.358Z,34.70
2018-04-20T16:35:27.879Z,34.30
2018-04-20T16:37:55.341Z,35.00
2018-04-20T16:43:26.505Z,38.60
2018-04-20T16:45:54.806Z,40.70
2018-04-20T16:48:22.315Z,40.10
2018-04-20T16:50:49.778Z,40.00
2018-04-20T16:53:18.024Z,39.50
2018-04-20T16:55:45.555Z,38.80
2018-04-20T16:58:13.148Z,38.80
2018-04-20T17:00:40.680Z,39.80
2018-04-20T17:03:08.320Z,39.70
2018-04-20T17:05:36.437Z,40.20
2018-04-20T17:08:03.960Z,41.60
2018-04-20T17:10:31.489Z,41.50
2018-04-20T17:13:00.046Z,42.70
2018-04-20T17:15:27.607Z,42.70
2018-04-20T17:17:55.148Z,42.10
2018-04-20T17:20:22.664Z,42.80
2018-04-20T17:22:52.829Z,43.30
2018-04-20T17:25:20.366Z,43.80
2018-04-20T17:27:47.917Z,44.00
2018-04-20T17:30:15.475Z,44.40
2018-04-20T17:32:42.946Z,44.80
2018-04-20T17:35:10.443Z,47.10
2018-04-20T17:37:37.954Z,47.80
2018-04-20T17:40:05.485Z,47.20
2018-04-20T17:42:33.753Z,48.80
2018-04-20T17:45:02.038Z,48.50
2018-04-20T17:47:29.535Z,48.40
2018-04-20T17:49:57.010Z,50.30
2018-04-20T17:52:24.553Z,51.70
2018-04-20T17:54:52.079Z,52.90
2018-04-20T17:57:19.585Z,57.60
2018-04-20T17:59:47.096Z,60.70
2018-04-20T18:02:14.624Z,62.70
2018-04-20T18:04:42.089Z,65.00
2018-04-20T18:07:10.338Z,66.00
2018-04-20T18:09:37.815Z,65.90
2018-04-20T18:12:06.076Z,65.50
2018-04-20T18:14:33.632Z,65.50
2018-04-20T18:17:01.201Z,63.20
2018-04-20T18:19:28.707Z,67.00
2018-04-20T18:21:56.223Z,63.30
2018-04-20T18:24:24.530Z,68.40
2018-04-20T18:26:52.078Z,68.30
2018-04-20T18:29:20.340Z,70.40
2018-04-20T18:31:48.647Z,72.20
2018-04-20T18:34:16.196Z,72.10
2018-04-20T18:36:43.792Z,67.30
2018-04-20T18:39:11.304Z,71.50
2018-04-20T18:41:39.597Z,73.80
2018-04-20T18:44:07.125Z,73.70
2018-04-20T18:46:35.489Z,76.70
2018-04-20T18:49:03.016Z,76.50
2018-04-20T18:51:30.516Z,78.30
2018-04-20T18:53:58.750Z,79.40
2018-04-20T18:56:26.262Z,79.20
2018-04-20T18:58:54.506Z,80.10
2018-04-20T19:01:22.022Z,80.00
2018-04-20T19:03:49.524Z,80.80
2018-04-20T19:06:17.071Z,80.50
2018-04-20T19:08:44.593Z,80.80
2018-04-20T19:11:12.087Z,81.90
2018-04-20T19:13:39.603Z,80.70
2018-04-20T19:16:07.100Z,80.20
2018-04-20T19:18:34.577Z,81.30
2018-04-20T19:21:02.116Z,82.10
2018-04-20T19:23:29.621Z,82.40
2018-04-20T19:25:57.114Z,80.80
2018-04-20T19:28:25.409Z,81.80
2018-04-20T19:30:52.899Z,81.80
2018-04-20T19:33:21.204Z,81.40
2018-04-20T19:35:48.712Z,81.30
2018-04-20T19:38:16.358Z,83.00
2018-04-20T19:40:43.837Z,84.30
2018-04-20T19:43:11.348Z,84.90
2018-04-20T19:45:38.855Z,85.40
2018-04-20T19:48:06.349Z,85.00
2018-04-20T19:50:33.848Z,84.30
2018-04-20T19:53:01.367Z,83.50
2018-04-20T19:55:28.843Z,84.30
2018-04-20T19:57:56.385Z,85.60
2018-04-20T20:00:23.854Z,86.20
2018-04-20T20:02:51.395Z,86.90
2018-04-20T20:05:18.950Z,87.30
2018-04-20T20:07:46.472Z,87.40
2018-04-20T20:10:13.991Z,87.80
2018-04-20T20:12:41.520Z,88.20
2018-04-20T20:15:09.036Z,88.20
2018-04-20T20:17:36.544Z,88.00
2018-04-20T20:20:04.043Z,88.20
2018-04-20T20:22:31.528Z,88.40
2018-04-20T20:24:59.818Z,89.60
2018-04-20T20:27:28.080Z,89.60
2018-04-20T20:29:56.326Z,88.70
2018-04-20T20:32:23.911Z,88.70
2018-04-20T20:34:52.154Z,89.70
2018-04-20T20:37:19.675Z,89.60
2018-04-20T20:39:47.162Z,90.10
2018-04-20T20:42:14.646Z,90.30
2018-04-20T20:44:42.190Z,90.40
2018-04-20T20:47:09.716Z,90.80
2018-04-20T20:49:37.215Z,91.00
2018-04-20T20:52:04.748Z,91.20
2018-04-20T20:54:32.278Z,91.30
2018-04-20T20:56:59.814Z,91.60
2018-04-20T20:59:28.095Z,91.90
2018-04-20T21:01:56.338Z,91.80
2018-04-20T21:04:23.871Z,91.80
2018-04-20T21:06:51.432Z,92.00
2018-04-20T21:09:18.933Z,92.20
2018-04-20T21:11:46.467Z,92.60
2018-04-20T21:14:13.975Z,92.80
2018-04-20T21:16:41.481Z,93.10
2018-04-20T21:19:09.019Z,93.00
2018-04-20T21:21:36.523Z,92.60
2018-04-20T21:24:04.807Z,93.20
2018-04-20T21:26:33.037Z,93.60
2018-04-20T21:29:00.575Z,93.60
2018-04-20T21:31:28.072Z,93.50
2018-04-20T21:33:59.380Z,93.40
2018-04-20T21:36:23.513Z,93.20
2018-04-20T21:38:51.766Z,92.80
2018-04-20T21:41:19.274Z,92.80
2018-04-20T21:43:46.821Z,92.80
2018-04-20T21:46:15.095Z,93.00
2018-04-20T21:48:42.585Z,93.00
2018-04-20T21:51:10.087Z,93.00
2018-04-20T21:53:37.578Z,93.20
2018-04-20T21:56:05.055Z,93.40
2018-04-20T21:58:32.575Z,93.60
2018-04-20T22:01:00.824Z,93.20
2018-04-20T22:03:28.339Z,93.20
2018-04-20T22:05:55.814Z,92.90
2018-04-20T22:08:23.319Z,92.80
2018-04-20T22:10:51.563Z,92.10
2018-04-20T22:13:19.099Z,92.10
2018-04-20T22:15:46.607Z,92.00
2018-04-20T22:18:14.855Z,92.40
2018-04-20T22:20:42.397Z,92.00
2018-04-20T22:23:09.916Z,91.90
2018-04-20T22:25:38.196Z,90.30
2018-04-20T22:28:06.469Z,90.20
2018-04-20T22:30:33.998Z,90.20
2018-04-20T22:33:01.529Z,90.10
2018-04-20T22:35:28.987Z,90.00
2018-04-20T22:37:56.461Z,89.50
2018-04-20T22:40:23.995Z,90.00
2018-04-20T22:42:51.503Z,89.40
2018-04-20T22:45:19.808Z,90.40
2018-04-20T22:47:47.312Z,90.30
2018-04-20T22:50:14.815Z,90.20
2018-04-20T22:52:42.362Z,90.60
2018-04-20T22:55:10.621Z,91.40
2018-04-20T22:57:38.101Z,91.40
2018-04-20T23:00:05.592Z,91.50
2018-04-20T23:02:33.119Z,92.00
2018-04-20T23:05:00.577Z,92.90
2018-04-20T23:07:28.108Z,92.90
2018-04-20T23:09:55.591Z,92.60
2018-04-20T23:12:23.240Z,92.90
2018-04-20T23:14:51.516Z,92.40
2018-04-20T23:17:19.762Z,92.60
2018-04-20T23:19:47.247Z,93.10
2018-04-20T23:22:15.530Z,93.30
2018-04-20T23:24:43.794Z,93.50
2018-04-20T23:27:11.264Z,93.50
2018-04-20T23:29:39.524Z,94.00
2018-04-20T23:32:07.865Z,94.10
2018-04-20T23:34:35.358Z,94.00
2018-04-20T23:37:03.651Z,94.00
2018-04-20T23:39:31.886Z,93.90
2018-04-20T23:41:59.426Z,93.90
2018-04-20T23:44:26.893Z,94.10
2018-04-20T23:46:54.439Z,94.20
2018-04-20T23:49:21.948Z,94.20
2018-04-20T23:51:50.273Z,94.10
2018-04-20T23:54:17.811Z,94.00
2018-04-20T23:56:45.301Z,93.80
2018-04-20T23:59:12.867Z,93.80
